createdAt,value
2022-12-24T00:01:21.822Z,11.73
2022-12-24T00:03:50.024Z,13.43
2022-12-24T00:06:21.505Z,14.18
2022-12-24T00:08:49.505Z,16.15
2022-12-24T00:11:17.565Z,12.00
2022-12-24T00:13:46.833Z,9.45
2022-12-24T00:16:14.814Z,13.50
2022-12-24T00:18:46.164Z,12.32
2022-12-24T00:21:15.082Z,9.13
2022-12-24T00:23:43.427Z,9.60
2022-12-24T00:26:11.526Z,11.30
2022-12-24T00:28:39.408Z,11.00
2022-12-24T00:31:14.549Z,8.23
2022-12-24T00:33:42.665Z,11.90
2022-12-24T00:36:10.989Z,12.48
2022-12-24T00:38:39.324Z,9.00
2022-12-24T00:41:24.773Z,10.43
2022-12-24T00:43:53.990Z,11.82
2022-12-24T00:46:23.978Z,13.50
2022-12-24T00:48:52.249Z,11.07
2022-12-24T00:51:21.262Z,10.40
2022-12-24T00:53:49.426Z,9.68
2022-12-24T00:56:17.447Z,17.40
2022-12-24T00:58:45.391Z,11.23
2022-12-24T01:01:13.434Z,10.63
2022-12-24T01:03:42.929Z,10.15
2022-12-24T01:06:12.563Z,11.15
2022-12-24T01:08:41.335Z,11.27
2022-12-24T01:11:10.487Z,11.05
2022-12-24T01:13:39.085Z,11.93
2022-12-24T01:16:15.683Z,10.82
2022-12-24T01:18:44.984Z,11.35
2022-12-24T01:21:14.599Z,10.45
2022-12-24T01:23:42.752Z,10.48
2022-12-24T01:26:12.146Z,10.32
2022-12-24T01:28:40.276Z,10.43
2022-12-24T01:31:13.351Z,8.85
2022-12-24T01:33:41.708Z,11.48
2022-12-24T01:36:11.391Z,10.68
2022-12-24T01:38:39.848Z,11.13
2022-12-24T01:41:25.530Z,11.50
2022-12-24T01:43:53.515Z,9.20
2022-12-24T01:46:25.987Z,14.43
2022-12-24T01:48:56.442Z,10.43
2022-12-24T01:51:31.561Z,14.27
2022-12-24T01:54:03.665Z,10.05
2022-12-24T01:56:33.529Z,13.00
2022-12-24T01:59:06.694Z,12.10
2022-12-24T02:01:35.646Z,13.27
2022-12-24T02:04:09.778Z,11.93
2022-12-24T02:06:39.060Z,13.32
2022-12-24T02:09:07.262Z,12.65
2022-12-24T02:11:38.403Z,13.93
2022-12-24T02:14:06.316Z,12.07
2022-12-24T02:16:44.290Z,12.68
2022-12-24T02:19:35.669Z,15.13
2022-12-24T02:22:08.245Z,12.73
2022-12-24T02:25:08.565Z,14.53
2022-12-24T02:27:48.701Z,13.93
2022-12-24T02:30:20.939Z,13.07
2022-12-24T02:33:16.365Z,18.02
2022-12-24T02:35:51.072Z,15.85
2022-12-24T02:38:27.345Z,13.98
2022-12-24T02:40:58.976Z,17.95
2022-12-24T02:43:33.818Z,15.45
2022-12-24T02:46:07.246Z,14.23
2022-12-24T02:48:38.007Z,16.98
2022-12-24T02:51:08.567Z,16.90
2022-12-24T02:53:37.907Z,16.00
2022-12-24T02:56:19.251Z,15.70
2022-12-24T02:59:03.073Z,15.02
2022-12-24T03:01:46.172Z,15.30
2022-12-24T03:04:39.553Z,14.75
2022-12-24T03:07:16.407Z,16.45
2022-12-24T03:09:57.210Z,16.05
2022-12-24T03:12:31.725Z,16.95
2022-12-24T03:15:00.607Z,15.27
2022-12-24T03:17:30.069Z,17.15
2022-12-24T03:19:57.933Z,16.33
2022-12-24T03:22:27.495Z,17.08
2022-12-24T03:24:56.322Z,13.68
2022-12-24T03:27:27.024Z,14.88
2022-12-24T03:29:55.147Z,14.25
2022-12-24T03:32:25.754Z,13.68
2022-12-24T03:34:55.012Z,12.35
2022-12-24T03:37:23.230Z,14.70
2022-12-24T03:39:51.123Z,14.52
2022-12-24T03:42:18.973Z,14.07
2022-12-24T03:44:46.897Z,16.08
2022-12-24T03:47:14.754Z,14.52
2022-12-24T03:49:42.711Z,15.13
2022-12-24T03:52:11.939Z,12.88
2022-12-24T03:54:39.807Z,16.27
2022-12-24T03:57:07.704Z,14.80
2022-12-24T03:59:35.595Z,14.63
2022-12-24T04:02:03.549Z,13.50
2022-12-24T04:04:33.489Z,16.73
2022-12-24T04:07:01.567Z,17.63
2022-12-24T04:09:30.910Z,18.17
2022-12-24T04:11:58.811Z,20.05
2022-12-24T04:14:26.697Z,15.30
2022-12-24T04:16:54.625Z,13.30
2022-12-24T04:19:22.529Z,14.20
2022-12-24T04:21:50.389Z,12.80
2022-12-24T04:24:18.271Z,16.10
2022-12-24T04:26:47.481Z,12.95
2022-12-24T04:29:15.420Z,16.27
2022-12-24T04:31:43.365Z,14.10
2022-12-24T04:34:11.329Z,14.60
2022-12-24T04:36:39.460Z,14.02
2022-12-24T04:39:07.638Z,14.10
2022-12-24T04:41:35.717Z,11.77
2022-12-24T04:44:05.015Z,13.95
2022-12-24T04:46:33.685Z,12.05
2022-12-24T04:49:01.615Z,15.05
2022-12-24T04:51:30.459Z,16.38
2022-12-24T04:53:58.563Z,17.08
2022-12-24T04:56:28.106Z,15.60
2022-12-24T04:58:56.568Z,16.25
2022-12-24T05:01:28.059Z,13.88
2022-12-24T05:03:56.571Z,15.10
2022-12-24T05:06:27.902Z,16.17
2022-12-24T05:08:56.445Z,16.27
2022-12-24T05:11:24.440Z,12.93
2022-12-24T05:13:52.730Z,17.40
2022-12-24T05:16:22.469Z,14.85
2022-12-24T05:18:52.150Z,16.30
2022-12-24T05:21:22.452Z,17.25
2022-12-24T05:24:08.673Z,16.27
2022-12-24T05:26:40.429Z,18.10
2022-12-24T05:29:09.608Z,15.43
2022-12-24T05:31:39.489Z,16.85
2022-12-24T05:34:09.719Z,14.27
2022-12-24T05:36:38.014Z,16.42
2022-12-24T05:39:11.371Z,18.63
2022-12-24T05:41:43.128Z,16.80
2022-12-24T05:44:11.165Z,15.48
2022-12-24T05:46:39.298Z,16.95
2022-12-24T05:49:08.630Z,17.15
2022-12-24T05:51:36.491Z,17.25
2022-12-24T05:54:05.617Z,16.20
2022-12-24T05:56:33.775Z,19.83
2022-12-24T05:59:01.720Z,17.02
2022-12-24T06:01:29.743Z,19.23
2022-12-24T06:03:58.407Z,20.58
2022-12-24T06:06:29.264Z,16.85
2022-12-24T06:08:57.497Z,20.85
2022-12-24T06:11:27.505Z,20.00
2022-12-24T06:13:56.092Z,19.25
2022-12-24T06:16:26.324Z,19.60
2022-12-24T06:18:54.429Z,18.45
2022-12-24T06:21:22.453Z,18.10
2022-12-24T06:23:51.859Z,18.38
2022-12-24T06:26:21.512Z,18.90
2022-12-24T06:28:50.327Z,16.45
2022-12-24T06:31:20.376Z,20.40
2022-12-24T06:33:48.685Z,20.98
2022-12-24T06:36:18.891Z,17.92
2022-12-24T06:38:47.162Z,22.63
2022-12-24T06:41:17.895Z,17.25
2022-12-24T06:43:46.788Z,18.15
2022-12-24T06:46:15.869Z,19.52
2022-12-24T06:48:45.487Z,18.42
2022-12-24T06:51:14.191Z,20.60
2022-12-24T06:53:42.206Z,19.42
2022-12-24T06:56:12.543Z,19.30
2022-12-24T06:58:42.377Z,22.88
2022-12-24T07:01:12.829Z,16.73
2022-12-24T07:03:41.130Z,13.80
2022-12-24T07:06:16.368Z,18.58
2022-12-24T07:08:44.358Z,18.75
2022-12-24T07:11:12.263Z,16.80
2022-12-24T07:13:41.819Z,17.35
2022-12-24T07:16:09.870Z,19.98
2022-12-24T07:18:37.930Z,21.35
2022-12-24T07:21:07.186Z,14.95
2022-12-24T07:23:35.879Z,20.25
2022-12-24T07:26:05.322Z,19.98
2022-12-24T07:28:33.224Z,18.30
2022-12-24T07:31:03.459Z,17.20
2022-12-24T07:33:31.477Z,16.77
2022-12-24T07:36:01.495Z,16.63
2022-12-24T07:38:29.732Z,18.90
2022-12-24T07:40:58.127Z,21.73
2022-12-24T07:43:26.514Z,20.52
2022-12-24T07:45:57.786Z,14.30
2022-12-24T07:48:28.690Z,19.55
2022-12-24T07:50:57.280Z,17.77
2022-12-24T07:53:25.990Z,19.63
2022-12-24T07:55:54.201Z,15.70
2022-12-24T07:58:23.281Z,18.90
2022-12-24T08:00:55.919Z,19.58
2022-12-24T08:03:24.100Z,20.10
2022-12-24T08:05:53.814Z,16.52
2022-12-24T08:08:22.023Z,16.77
2022-12-24T08:10:50.056Z,18.75
2022-12-24T08:13:18.369Z,21.15
2022-12-24T08:15:46.616Z,20.63
2022-12-24T08:18:14.499Z,18.58
2022-12-24T08:20:42.782Z,20.50
2022-12-24T08:23:12.274Z,19.67
2022-12-24T08:25:44.548Z,21.08
2022-12-24T08:28:13.033Z,21.45
2022-12-24T08:30:41.180Z,21.98
2022-12-24T08:33:09.108Z,17.95
2022-12-24T08:35:37.005Z,21.17
2022-12-24T08:38:04.991Z,20.80
2022-12-24T08:40:34.290Z,23.67
2022-12-24T08:43:02.948Z,23.85
2022-12-24T08:45:36.148Z,20.45
2022-12-24T08:48:08.194Z,24.42
2022-12-24T08:50:36.151Z,22.88
2022-12-24T08:53:04.103Z,22.48
2022-12-24T08:55:32.243Z,21.00
2022-12-24T08:58:02.449Z,23.83
2022-12-24T09:00:30.655Z,25.05
2022-12-24T09:02:59.341Z,25.73
2022-12-24T09:05:27.380Z,22.27
2022-12-24T09:07:55.307Z,20.00
2022-12-24T09:10:24.053Z,21.98
2022-12-24T09:12:52.220Z,23.45
2022-12-24T09:15:21.442Z,20.33
2022-12-24T09:17:49.368Z,21.60
2022-12-24T09:20:17.284Z,22.08
2022-12-24T09:22:45.159Z,23.85
2022-12-24T09:25:13.014Z,23.20
2022-12-24T09:27:40.858Z,23.20
2022-12-24T09:30:09.956Z,25.50
2022-12-24T09:32:39.202Z,26.52
2022-12-24T09:35:07.434Z,22.33
2022-12-24T09:37:35.351Z,31.63
2022-12-24T09:40:03.182Z,25.20
2022-12-24T09:42:42.603Z,22.65
2022-12-24T09:45:17.793Z,31.40
2022-12-24T09:47:50.873Z,28.38
2022-12-24T09:50:31.340Z,24.52
2022-12-24T09:53:02.994Z,25.25
2022-12-24T09:55:34.666Z,27.65
2022-12-24T09:58:06.143Z,26.80
2022-12-24T10:00:37.694Z,25.25
2022-12-24T10:03:16.624Z,20.73
2022-12-24T10:05:52.932Z,26.40
2022-12-24T10:08:29.437Z,24.23
2022-12-24T10:11:05.929Z,24.25
2022-12-24T10:13:46.581Z,25.25
2022-12-24T10:16:22.624Z,27.02
2022-12-24T10:19:01.386Z,24.77
2022-12-24T10:21:38.407Z,25.15
2022-12-24T10:24:11.729Z,26.55
2022-12-24T10:29:17.311Z,27.47
2022-12-24T10:31:52.010Z,27.47
2022-12-24T10:34:24.053Z,24.50
2022-12-24T10:36:52.871Z,26.63
2022-12-24T10:39:23.892Z,18.52
2022-12-24T10:41:55.294Z,19.35
2022-12-24T10:44:25.604Z,17.98
2022-12-24T10:46:53.757Z,17.58
2022-12-24T10:49:31.231Z,20.02
2022-12-24T10:52:04.118Z,19.25
2022-12-24T10:54:39.103Z,18.85
2022-12-24T10:57:23.730Z,16.98
2022-12-24T10:59:54.601Z,17.00
2022-12-24T11:02:30.879Z,18.70
2022-12-24T11:05:01.036Z,20.90
2022-12-24T11:07:31.107Z,18.98
2022-12-24T11:10:00.712Z,14.55
2022-12-24T11:12:32.833Z,16.55
2022-12-24T11:15:03.570Z,17.25
2022-12-24T11:17:31.957Z,14.05
2022-12-24T11:20:03.358Z,17.70
2022-12-24T11:22:32.817Z,13.85
2022-12-24T11:25:05.519Z,13.95
2022-12-24T11:27:47.199Z,14.98
2022-12-24T11:30:27.509Z,15.43
2022-12-24T11:33:20.086Z,12.25
2022-12-24T11:35:54.167Z,17.85
2022-12-24T11:38:25.501Z,14.18
2022-12-24T11:41:01.343Z,13.43
2022-12-24T11:43:44.476Z,12.35
2022-12-24T11:46:16.619Z,14.27
2022-12-24T11:48:44.643Z,11.40
2022-12-24T11:51:24.396Z,11.65
2022-12-24T11:53:59.892Z,10.77
2022-12-24T11:56:36.172Z,12.80
2022-12-24T11:59:12.643Z,12.43
2022-12-24T12:01:49.158Z,11.25
2022-12-24T12:04:21.698Z,10.55
2022-12-24T12:06:53.651Z,11.40
2022-12-24T12:09:25.657Z,13.05
2022-12-24T12:11:58.027Z,10.68
2022-12-24T12:14:31.771Z,12.23
2022-12-24T12:17:05.161Z,11.82
2022-12-24T12:19:40.227Z,13.07
2022-12-24T12:22:17.630Z,10.63
2022-12-24T12:24:52.466Z,9.63
2022-12-24T12:27:26.305Z,8.68
2022-12-24T12:30:00.547Z,11.38
2022-12-24T12:32:38.538Z,11.13
2022-12-24T12:35:18.056Z,13.60
2022-12-24T12:37:52.663Z,14.40
2022-12-24T12:40:20.728Z,11.50
2022-12-24T12:42:56.770Z,11.60
2022-12-24T12:45:39.196Z,11.23
2022-12-24T12:48:21.694Z,8.32
2022-12-24T12:50:55.631Z,10.32
2022-12-24T12:53:41.351Z,14.27
2022-12-24T12:56:19.095Z,11.65
2022-12-24T12:58:53.414Z,10.77
2022-12-24T13:01:32.538Z,12.13
2022-12-24T13:04:29.359Z,13.10
2022-12-24T13:07:32.700Z,16.10
2022-12-24T13:10:19.474Z,8.48
2022-12-24T13:13:03.493Z,11.82
2022-12-24T13:15:52.295Z,15.43
2022-12-24T13:18:37.711Z,13.45
2022-12-24T13:21:05.995Z,11.40
2022-12-24T13:23:34.086Z,12.75
2022-12-24T13:26:12.426Z,17.65
2022-12-24T13:28:40.529Z,13.02
2022-12-24T13:31:35.499Z,14.52
2022-12-24T13:34:04.469Z,13.32
2022-12-24T13:37:21.199Z,14.02
2022-12-24T13:40:18.240Z,19.65
2022-12-24T13:43:07.876Z,18.88
2022-12-24T13:45:50.258Z,19.80
2022-12-24T13:48:32.446Z,19.00
2022-12-24T13:51:02.696Z,12.60
2022-12-24T13:53:34.347Z,17.65
2022-12-24T13:56:08.563Z,18.88
2022-12-24T13:58:40.845Z,19.40
2022-12-24T14:01:12.745Z,18.60
2022-12-24T14:03:44.970Z,24.85
2022-12-24T14:06:22.050Z,22.17
2022-12-24T14:08:52.758Z,19.77
2022-12-24T14:11:22.507Z,25.63
2022-12-24T14:14:10.967Z,28.88
2022-12-24T14:16:50.078Z,19.58
2022-12-24T14:19:22.369Z,13.57
2022-12-24T14:21:57.246Z,20.73
2022-12-24T14:24:28.315Z,16.17
2022-12-24T14:26:58.727Z,25.92
2022-12-24T14:29:33.052Z,23.85
2022-12-24T14:32:04.312Z,19.33
2022-12-24T14:34:32.972Z,30.00
2022-12-24T14:37:04.578Z,24.00
2022-12-24T14:39:35.655Z,22.58
2022-12-24T14:42:27.766Z,22.55
2022-12-24T14:45:06.468Z,31.60
2022-12-24T14:47:42.790Z,19.55
2022-12-24T14:50:41.288Z,18.95
2022-12-24T14:53:22.351Z,27.98
2022-12-24T14:55:51.367Z,26.30
2022-12-24T14:58:32.729Z,24.55
2022-12-24T15:01:04.134Z,28.70
2022-12-24T15:03:33.535Z,26.88
2022-12-24T15:06:04.011Z,22.83
2022-12-24T15:08:34.732Z,23.95
2022-12-24T15:11:06.845Z,16.48
2022-12-24T15:13:38.333Z,27.65
2022-12-24T15:16:11.090Z,21.67
2022-12-24T15:18:43.078Z,28.48
2022-12-24T15:21:18.219Z,22.17
2022-12-24T15:23:49.600Z,22.92
2022-12-24T15:26:23.585Z,31.15
2022-12-24T15:28:56.542Z,22.75
2022-12-24T15:31:30.573Z,26.88
2022-12-24T15:34:00.303Z,36.72
2022-12-24T15:36:31.396Z,26.40
2022-12-24T15:39:02.107Z,26.02
2022-12-24T15:41:37.957Z,31.00
2022-12-24T15:44:06.218Z,26.95
2022-12-24T15:46:35.689Z,18.30
2022-12-24T15:49:04.557Z,23.83
2022-12-24T15:51:38.250Z,26.25
2022-12-24T15:54:12.142Z,17.38
2022-12-24T15:56:44.372Z,21.88
2022-12-24T15:59:31.033Z,33.55
2022-12-24T16:02:29.239Z,22.77
2022-12-24T16:05:28.445Z,26.20
2022-12-24T16:08:11.177Z,32.03
2022-12-24T16:10:42.213Z,19.67
2022-12-24T16:13:17.370Z,26.17
2022-12-24T16:15:50.129Z,20.85
2022-12-24T16:18:24.941Z,20.65
2022-12-24T16:20:55.039Z,24.92
2022-12-24T16:23:25.572Z,21.15
2022-12-24T16:25:53.955Z,24.42
2022-12-24T16:28:23.235Z,29.00
2022-12-24T16:30:51.554Z,19.75
2022-12-24T16:33:23.422Z,22.10
2022-12-24T16:35:51.737Z,35.53
2022-12-24T16:38:19.641Z,29.35
2022-12-24T17:57:07.480Z,38.70
2022-12-24T17:59:35.311Z,34.40
2022-12-24T18:02:04.847Z,25.45
2022-12-24T18:04:32.874Z,29.60
2022-12-24T18:07:03.161Z,35.95
2022-12-24T18:09:31.442Z,31.10
2022-12-24T18:11:59.506Z,26.70
2022-12-24T18:14:29.277Z,31.23
2022-12-24T18:16:57.187Z,32.97
2022-12-24T18:19:25.057Z,26.10
2022-12-24T18:21:52.961Z,26.17
2022-12-24T18:24:20.904Z,27.20
2022-12-24T18:26:49.485Z,32.55
2022-12-24T18:29:17.720Z,31.85
2022-12-24T18:31:46.998Z,33.88
2022-12-24T18:34:15.483Z,25.58
2022-12-24T18:36:43.562Z,22.77
2022-12-24T18:39:11.464Z,21.25
2022-12-24T18:41:39.449Z,25.02
2022-12-24T18:44:07.347Z,21.83
2022-12-24T18:46:35.302Z,27.00
2022-12-24T18:49:04.730Z,28.40
2022-12-24T18:51:35.398Z,23.48
2022-12-24T18:54:03.795Z,26.17
2022-12-24T18:56:32.428Z,18.00
2022-12-24T18:59:02.373Z,15.27
2022-12-24T19:01:32.468Z,21.40
2022-12-24T19:04:01.360Z,19.20
2022-12-24T19:06:30.774Z,21.52
2022-12-24T19:09:00.781Z,18.13
2022-12-24T19:11:31.687Z,15.48
2022-12-24T19:14:00.000Z,21.35
2022-12-24T19:16:28.582Z,21.50
2022-12-24T19:18:57.217Z,19.55
2022-12-24T19:21:25.167Z,13.82
2022-12-24T19:23:54.488Z,16.70
2022-12-24T19:26:23.297Z,24.75
2022-12-24T19:28:51.641Z,16.15
2022-12-24T19:31:21.758Z,14.93
2022-12-24T19:33:51.797Z,19.77
2022-12-24T19:36:22.561Z,16.50
2022-12-24T19:39:03.475Z,15.73
2022-12-24T19:41:32.126Z,26.80
2022-12-24T19:44:02.333Z,12.88
2022-12-24T19:46:34.084Z,15.43
2022-12-24T19:49:06.058Z,17.58
2022-12-24T19:51:35.693Z,16.05
2022-12-24T19:54:06.124Z,19.58
2022-12-24T19:56:34.769Z,14.70
2022-12-24T19:59:03.585Z,16.02
2022-12-24T20:01:34.104Z,18.20
2022-12-24T20:04:05.232Z,13.93
2022-12-24T20:06:39.467Z,12.25
2022-12-24T20:09:09.491Z,17.00
2022-12-24T20:11:37.430Z,17.70
2022-12-24T20:14:07.683Z,13.60
2022-12-24T20:16:36.624Z,14.45
2022-12-24T20:19:06.553Z,14.82
2022-12-24T20:21:35.161Z,14.93
2022-12-24T20:24:03.173Z,18.20
2022-12-24T20:26:32.442Z,9.85
2022-12-24T20:29:04.490Z,12.95
2022-12-24T20:31:32.533Z,16.33
2022-12-24T20:34:02.154Z,15.70
2022-12-24T20:36:32.044Z,14.55
2022-12-24T20:39:00.356Z,15.18
2022-12-24T20:41:30.260Z,14.93
2022-12-24T20:44:04.444Z,11.07
2022-12-24T20:46:33.448Z,12.10
2022-12-24T20:49:01.477Z,12.95
2022-12-24T20:51:29.942Z,14.75
2022-12-24T20:54:00.302Z,18.48
2022-12-24T20:56:28.994Z,17.05
2022-12-24T20:58:58.330Z,11.73
2022-12-24T21:01:28.464Z,15.75
2022-12-24T21:03:57.886Z,16.10
2022-12-24T21:06:26.067Z,19.17
2022-12-24T21:08:54.779Z,16.13
2022-12-24T21:11:41.241Z,19.08
2022-12-24T21:14:10.025Z,22.52
2022-12-24T21:16:41.236Z,14.23
2022-12-24T21:19:10.442Z,14.18
2022-12-24T21:21:38.581Z,15.40
2022-12-24T21:24:07.175Z,11.77
2022-12-24T21:26:35.666Z,15.32
2022-12-24T21:29:05.122Z,15.30
2022-12-24T21:31:33.247Z,16.23
2022-12-24T21:34:02.574Z,17.20
2022-12-24T21:36:30.568Z,14.88
2022-12-24T21:38:58.480Z,16.48
2022-12-24T21:41:27.477Z,14.93
2022-12-24T21:43:55.964Z,15.43
2022-12-24T21:46:25.795Z,14.70
2022-12-24T21:49:11.951Z,16.15
2022-12-24T21:51:43.313Z,15.07
2022-12-24T21:54:30.738Z,20.00
2022-12-24T21:57:18.517Z,11.75
2022-12-24T21:59:47.175Z,15.20
2022-12-24T22:02:16.960Z,21.35
2022-12-24T22:04:45.276Z,18.73
2022-12-24T22:07:44.438Z,15.15
2022-12-24T22:10:31.847Z,18.40
2022-12-24T22:13:00.798Z,16.40
2022-12-24T22:15:28.689Z,19.35
2022-12-24T22:17:56.641Z,18.95
2022-12-24T22:20:24.633Z,15.25
2022-12-24T22:22:54.039Z,17.65
2022-12-24T22:25:21.947Z,16.00
2022-12-24T22:27:49.943Z,16.35
2022-12-24T22:30:17.912Z,14.82
2022-12-24T22:32:45.803Z,20.15
2022-12-24T22:35:13.746Z,20.00
2022-12-24T22:37:41.687Z,18.23
2022-12-24T22:40:12.169Z,25.75
2022-12-24T22:42:40.972Z,22.48
2022-12-24T22:45:12.596Z,23.10
2022-12-24T22:47:43.630Z,22.77
2022-12-24T22:50:12.550Z,21.95
2022-12-24T22:52:40.462Z,15.15
2022-12-24T22:55:09.180Z,23.05
2022-12-24T22:57:38.453Z,21.92
2022-12-24T23:00:12.907Z,23.23
2022-12-24T23:02:40.961Z,22.20
2022-12-24T23:05:12.466Z,20.33
2022-12-24T23:07:41.298Z,29.15
2022-12-24T23:10:10.150Z,18.95
2022-12-24T23:12:56.746Z,22.50
2022-12-24T23:15:24.668Z,20.13
2022-12-24T23:17:52.585Z,19.27
2022-12-24T23:20:20.488Z,14.30
2022-12-24T23:22:48.503Z,23.17
2022-12-24T23:25:16.547Z,27.00
2022-12-24T23:27:45.821Z,22.80
2022-12-24T23:30:13.999Z,16.80
2022-12-24T23:32:41.864Z,19.00
2022-12-24T23:35:10.343Z,22.05
2022-12-24T23:37:38.252Z,22.45
2022-12-24T23:40:06.902Z,25.75
2022-12-24T23:42:34.829Z,27.30
2022-12-24T23:45:04.274Z,25.08
2022-12-24T23:47:32.270Z,24.30
2022-12-24T23:50:00.160Z,26.48
2022-12-24T23:52:28.115Z,22.30
2022-12-24T23:54:55.977Z,22.92
2022-12-24T23:57:23.896Z,20.58
2022-12-24T23:59:51.751Z,18.35
